createdAt,value
2022-09-15T00:01:05.485Z,2.35
2022-09-15T00:03:32.085Z,2.30
2022-09-15T00:05:58.665Z,2.20
2022-09-15T00:08:26.023Z,2.25
2022-09-15T00:10:55.918Z,2.20
2022-09-15T00:13:23.379Z,2.13
2022-09-15T00:15:50.135Z,2.20
2022-09-15T00:18:16.918Z,2.40
2022-09-15T00:20:45.379Z,2.13
2022-09-15T00:23:14.353Z,2.38
2022-09-15T00:25:43.321Z,2.45
2022-09-15T00:28:10.179Z,2.50
2022-09-15T00:30:48.890Z,2.35
2022-09-15T00:33:16.640Z,2.33
2022-09-15T00:35:45.099Z,2.10
2022-09-15T00:38:13.650Z,2.25
2022-09-15T00:41:01.179Z,2.20
2022-09-15T00:43:55.992Z,2.20
2022-09-15T00:49:12.541Z,2.23
2022-09-15T00:51:49.164Z,2.40
2022-09-15T00:54:41.562Z,2.28
2022-09-15T00:57:15.942Z,2.13
2022-09-15T00:59:43.543Z,2.10
2022-09-15T01:02:20.975Z,2.10
2022-09-15T01:04:48.864Z,2.22
2022-09-15T01:07:19.084Z,2.50
2022-09-15T01:09:52.590Z,2.40
2022-09-15T01:12:20.871Z,2.45
2022-09-15T01:14:47.502Z,1.95
2022-09-15T01:17:32.523Z,2.05
2022-09-15T01:20:20.515Z,2.45
2022-09-15T01:23:13.460Z,2.20
2022-09-15T01:26:04.482Z,2.33
2022-09-15T01:28:52.621Z,2.55
2022-09-15T01:31:27.483Z,2.40
2022-09-15T01:34:00.755Z,2.75
2022-09-15T01:36:50.739Z,2.78
2022-09-15T01:39:23.452Z,2.70
2022-09-15T01:42:02.532Z,2.25
2022-09-15T01:44:49.794Z,2.50
2022-09-15T01:47:19.914Z,2.35
2022-09-15T01:50:10.341Z,2.28
2022-09-15T01:52:40.964Z,2.63
2022-09-15T01:55:15.944Z,2.20
2022-09-15T01:57:42.898Z,2.30
2022-09-15T02:00:10.068Z,2.33
2022-09-15T02:02:45.943Z,2.50
2022-09-15T02:05:30.297Z,2.70
2022-09-15T02:08:10.667Z,2.22
2022-09-15T02:10:44.857Z,2.00
2022-09-15T02:15:51.711Z,2.22
2022-09-15T02:18:30.484Z,2.30
2022-09-15T02:21:17.810Z,2.28
2022-09-15T02:23:53.332Z,2.60
2022-09-15T02:26:24.490Z,2.40
2022-09-15T02:28:54.221Z,2.20
2022-09-15T02:31:24.912Z,2.53
2022-09-15T02:33:57.660Z,2.40
2022-09-15T02:36:26.378Z,2.08
2022-09-15T02:38:59.984Z,2.22
2022-09-15T02:41:27.272Z,2.90
2022-09-15T02:43:53.816Z,2.50
2022-09-15T02:46:21.950Z,2.30
2022-09-15T02:48:48.548Z,2.20
2022-09-15T02:51:17.291Z,2.00
2022-09-15T02:53:44.616Z,2.50
2022-09-15T02:56:11.303Z,2.10
2022-09-15T02:58:37.941Z,2.28
2022-09-15T03:01:06.768Z,2.28
2022-09-15T03:03:34.545Z,2.00
2022-09-15T03:06:16.647Z,2.08
2022-09-15T03:08:47.098Z,1.80
2022-09-15T03:11:13.947Z,1.67
2022-09-15T03:13:40.475Z,2.00
2022-09-15T03:16:11.587Z,2.10
2022-09-15T03:18:38.651Z,2.20
2022-09-15T03:21:06.901Z,2.00
2022-09-15T03:23:34.029Z,2.15
2022-09-15T03:26:01.409Z,1.95
2022-09-15T03:28:28.751Z,1.92
2022-09-15T03:30:55.729Z,1.83
2022-09-15T03:33:23.400Z,2.05
2022-09-15T03:35:51.966Z,1.90
2022-09-15T03:38:19.006Z,1.98
2022-09-15T03:41:02.979Z,2.17
2022-09-15T03:43:31.225Z,2.00
2022-09-15T03:45:59.572Z,2.00
2022-09-15T03:48:28.583Z,2.05
2022-09-15T03:50:55.275Z,2.03
2022-09-15T03:53:22.228Z,1.88
2022-09-15T03:55:49.857Z,2.00
2022-09-15T03:58:17.741Z,1.90
2022-09-15T04:00:45.839Z,2.00
2022-09-15T04:03:12.998Z,2.13
2022-09-15T04:05:39.888Z,1.60
2022-09-15T04:08:06.809Z,1.80
2022-09-15T04:10:33.463Z,1.92
2022-09-15T04:12:59.974Z,2.10
2022-09-15T04:15:26.566Z,2.03
2022-09-15T04:17:53.540Z,2.00
2022-09-15T04:20:20.185Z,1.90
2022-09-15T04:22:46.871Z,2.20
2022-09-15T04:25:13.375Z,2.05
2022-09-15T04:27:39.927Z,1.63
2022-09-15T04:30:07.587Z,2.10
2022-09-15T04:32:35.690Z,2.15
2022-09-15T04:35:04.051Z,2.00
2022-09-15T04:37:31.435Z,2.17
2022-09-15T04:39:58.085Z,2.10
2022-09-15T04:42:24.711Z,2.30
2022-09-15T04:44:51.498Z,2.00
2022-09-15T04:47:18.272Z,1.90
2022-09-15T04:49:45.571Z,2.35
2022-09-15T04:52:12.145Z,2.05
2022-09-15T04:54:38.683Z,2.22
2022-09-15T04:57:05.619Z,2.08
2022-09-15T04:59:32.307Z,2.33
2022-09-15T05:01:58.883Z,2.10
2022-09-15T05:04:25.761Z,1.88
2022-09-15T05:06:52.300Z,2.30
2022-09-15T05:09:18.799Z,1.90
2022-09-15T05:11:45.387Z,2.22
2022-09-15T05:14:12.008Z,1.98
2022-09-15T05:16:40.054Z,2.17
2022-09-15T05:19:06.734Z,2.33
2022-09-15T05:21:33.876Z,1.92
2022-09-15T05:24:00.537Z,1.88
2022-09-15T05:26:29.293Z,2.38
2022-09-15T05:28:57.058Z,1.88
2022-09-15T05:31:29.200Z,2.20
2022-09-15T05:33:56.062Z,2.30
2022-09-15T05:36:25.186Z,1.80
2022-09-15T05:38:59.171Z,2.05
2022-09-15T05:41:27.140Z,2.13
2022-09-15T05:43:56.853Z,2.00
2022-09-15T05:46:26.132Z,2.00
2022-09-15T05:48:56.662Z,1.80
2022-09-15T05:51:23.890Z,2.00
2022-09-15T05:53:51.007Z,2.40
2022-09-15T05:56:18.805Z,2.45
2022-09-15T05:58:47.619Z,2.03
2022-09-15T06:01:20.632Z,2.17
2022-09-15T06:03:48.087Z,1.88
2022-09-15T06:06:14.698Z,2.10
2022-09-15T06:08:56.890Z,2.00
2022-09-15T06:11:34.805Z,2.22
2022-09-15T06:14:03.280Z,2.17
2022-09-15T06:16:33.268Z,2.33
2022-09-15T06:19:01.218Z,2.40
2022-09-15T06:21:29.205Z,2.50
2022-09-15T06:23:58.107Z,2.53
2022-09-15T06:26:25.668Z,2.60
2022-09-15T06:28:54.961Z,2.45
2022-09-15T06:31:22.590Z,2.40
2022-09-15T06:33:51.818Z,2.13
2022-09-15T06:36:20.132Z,2.20
2022-09-15T06:38:47.396Z,2.63
2022-09-15T06:41:14.439Z,2.45
2022-09-15T06:43:42.199Z,2.28
2022-09-15T06:46:14.599Z,2.35
2022-09-15T06:48:43.475Z,2.22
2022-09-15T06:51:14.284Z,2.25
2022-09-15T06:53:41.681Z,2.88
2022-09-15T06:56:11.127Z,2.05
2022-09-15T06:58:40.168Z,2.45
2022-09-15T07:01:12.281Z,2.60
2022-09-15T07:03:40.960Z,2.38
2022-09-15T07:06:08.436Z,2.60
2022-09-15T07:08:35.040Z,2.35
2022-09-15T07:11:02.018Z,2.20
2022-09-15T07:13:28.645Z,1.88
2022-09-15T07:16:00.757Z,1.83
2022-09-15T07:18:27.856Z,2.20
2022-09-15T07:20:59.873Z,1.95
2022-09-15T07:23:27.322Z,2.10
2022-09-15T07:26:04.901Z,2.33
2022-09-15T07:28:31.500Z,2.10
2022-09-15T07:30:57.995Z,1.83
2022-09-15T07:33:24.591Z,2.20
2022-09-15T07:35:51.302Z,1.80
2022-09-15T07:38:17.961Z,2.17
2022-09-15T07:40:46.040Z,1.90
2022-09-15T07:43:13.216Z,1.90
2022-09-15T07:45:39.835Z,2.28
2022-09-15T07:48:06.468Z,2.08
2022-09-15T07:50:33.197Z,2.35
2022-09-15T07:52:59.797Z,1.92
2022-09-15T07:55:27.039Z,1.92
2022-09-15T07:57:58.564Z,2.00
2022-09-15T08:00:25.757Z,1.88
2022-09-15T08:02:52.564Z,2.30
2022-09-15T08:05:19.650Z,1.80
2022-09-15T08:07:46.323Z,1.98
2022-09-15T08:10:12.898Z,2.13
2022-09-15T08:12:40.764Z,2.05
2022-09-15T08:15:07.694Z,2.13
2022-09-15T08:17:34.560Z,1.98
2022-09-15T08:20:01.678Z,1.90
2022-09-15T08:22:28.237Z,1.98
2022-09-15T08:24:54.851Z,1.67
2022-09-15T08:27:21.382Z,2.08
2022-09-15T08:29:48.170Z,1.80
2022-09-15T08:32:14.941Z,1.88
2022-09-15T08:34:41.589Z,1.98
2022-09-15T08:37:08.148Z,1.83
2022-09-15T08:39:34.739Z,1.60
2022-09-15T08:42:02.649Z,1.70
2022-09-15T08:44:38.414Z,1.48
2022-09-15T08:47:13.457Z,1.45
2022-09-15T08:50:13.334Z,1.85
2022-09-15T08:52:50.581Z,1.58
2022-09-15T08:55:48.215Z,1.75
2022-09-15T08:58:31.193Z,1.50
2022-09-15T09:01:22.723Z,1.75
2022-09-15T09:04:08.140Z,2.05
2022-09-15T09:06:44.518Z,1.70
2022-09-15T09:09:33.185Z,1.60
2022-09-15T09:12:37.035Z,1.30
2022-09-15T09:15:31.533Z,1.90
2022-09-15T09:18:29.359Z,1.85
2022-09-15T09:21:05.233Z,1.67
2022-09-15T09:23:33.796Z,1.70
2022-09-15T09:26:02.145Z,1.50
2022-09-15T09:28:36.569Z,1.88
2022-09-15T09:31:07.662Z,1.67
2022-09-15T09:33:52.230Z,1.58
2022-09-15T09:36:19.840Z,1.50
2022-09-15T09:38:48.851Z,1.55
2022-09-15T09:41:25.448Z,1.85
2022-09-15T09:43:55.032Z,2.10
2022-09-15T09:46:22.252Z,2.00
2022-09-15T09:48:56.483Z,1.73
2022-09-15T09:54:05.263Z,1.67
2022-09-15T09:56:31.826Z,1.70
2022-09-15T09:58:58.463Z,2.08
2022-09-15T10:01:26.138Z,1.45
2022-09-15T10:04:16.855Z,2.00
2022-09-15T10:06:44.137Z,1.73
2022-09-15T10:09:17.470Z,1.48
2022-09-15T10:11:52.164Z,1.87
2022-09-15T10:14:25.130Z,1.70
2022-09-15T10:17:13.817Z,1.45
2022-09-15T10:19:46.423Z,1.50
2022-09-15T10:22:45.464Z,1.75
2022-09-15T10:25:21.037Z,1.95
2022-09-15T10:28:12.397Z,1.63
2022-09-15T10:30:40.422Z,1.80
2022-09-15T10:33:22.826Z,1.52
2022-09-15T10:35:49.519Z,1.30
2022-09-15T10:38:26.453Z,1.63
2022-09-15T10:41:00.918Z,1.55
2022-09-15T10:43:30.461Z,1.40
2022-09-15T10:46:18.655Z,1.60
2022-09-15T10:49:13.314Z,1.50
2022-09-15T10:51:59.950Z,1.33
2022-09-15T10:54:47.961Z,1.58
2022-09-15T10:57:32.964Z,1.27
2022-09-15T11:00:10.102Z,1.55
2022-09-15T11:03:03.992Z,1.85
2022-09-15T11:05:33.582Z,1.50
2022-09-15T11:08:48.347Z,1.30
2022-09-15T11:11:17.656Z,1.65
2022-09-15T11:13:59.354Z,1.60
2022-09-15T11:16:54.233Z,1.70
2022-09-15T11:19:42.362Z,1.10
2022-09-15T11:22:20.203Z,1.33
2022-09-15T11:24:53.252Z,1.50
2022-09-15T11:27:31.462Z,1.35
2022-09-15T11:30:03.980Z,1.80
2022-09-15T11:32:58.097Z,1.40
2022-09-15T11:35:59.319Z,1.70
2022-09-15T11:38:47.960Z,1.63
2022-09-15T11:41:28.456Z,1.60
2022-09-15T11:44:18.270Z,1.88
2022-09-15T11:47:22.352Z,1.50
2022-09-15T11:49:55.852Z,1.48
2022-09-15T11:52:59.907Z,1.52
2022-09-15T11:55:42.036Z,1.65
2022-09-15T11:58:22.028Z,1.55
2022-09-15T12:00:55.755Z,1.35
2022-09-15T12:03:39.058Z,1.38
2022-09-15T12:06:34.375Z,1.08
2022-09-15T12:09:11.947Z,1.50
2022-09-15T12:11:43.184Z,1.20
2022-09-15T12:14:16.527Z,1.08
2022-09-15T12:16:44.588Z,1.00
2022-09-15T12:19:26.834Z,1.40
2022-09-15T12:22:01.444Z,0.88
2022-09-15T12:24:45.860Z,1.25
2022-09-15T12:27:16.819Z,1.08
2022-09-15T12:29:51.778Z,1.10
2022-09-15T12:32:28.881Z,1.17
2022-09-15T12:35:01.696Z,1.30
2022-09-15T12:37:49.063Z,1.30
2022-09-15T12:40:27.681Z,1.13
2022-09-15T12:42:54.693Z,1.08
2022-09-15T12:45:36.151Z,1.33
2022-09-15T12:48:07.454Z,0.90
2022-09-15T12:50:53.212Z,1.00
2022-09-15T12:53:25.145Z,0.88
2022-09-15T12:55:53.003Z,1.17
2022-09-15T12:58:36.450Z,1.00
2022-09-15T13:01:18.777Z,0.90
2022-09-15T13:03:45.672Z,0.88
2022-09-15T13:06:26.786Z,1.00
2022-09-15T13:09:02.321Z,1.25
2022-09-15T13:11:38.113Z,1.23
2022-09-15T13:14:07.784Z,0.93
2022-09-15T13:16:40.314Z,1.20
2022-09-15T13:19:40.923Z,1.20
2022-09-15T13:22:23.904Z,1.23
2022-09-15T13:24:57.814Z,1.30
2022-09-15T13:27:35.707Z,1.25
2022-09-15T13:30:20.550Z,1.33
2022-09-15T13:33:05.359Z,1.13
2022-09-15T13:35:51.816Z,1.33
2022-09-15T13:38:45.978Z,1.30
2022-09-15T13:41:42.285Z,1.17
2022-09-15T13:44:27.642Z,1.25
2022-09-15T13:47:23.370Z,1.52
2022-09-15T13:49:57.749Z,1.08
2022-09-15T13:52:31.471Z,1.30
2022-09-15T13:55:14.493Z,1.40
2022-09-15T14:00:35.230Z,1.50
2022-09-15T14:03:09.339Z,1.60
2022-09-15T14:08:07.704Z,1.58
2022-09-15T14:10:45.247Z,1.42
2022-09-15T14:13:16.461Z,1.40
2022-09-15T14:15:56.747Z,1.38
2022-09-15T14:18:23.402Z,1.30
2022-09-15T14:21:05.424Z,1.23
2022-09-15T14:23:32.683Z,1.67
2022-09-15T14:26:01.496Z,1.58
2022-09-15T14:28:33.983Z,1.58
2022-09-15T14:31:02.430Z,1.42
2022-09-15T14:33:37.856Z,1.23
2022-09-15T14:36:22.674Z,1.00
2022-09-15T14:39:17.850Z,1.10
2022-09-15T14:41:45.560Z,0.90
2022-09-15T14:47:28.239Z,1.50
2022-09-15T14:50:13.790Z,1.70
2022-09-15T14:52:42.078Z,1.40
2022-09-15T14:55:36.192Z,1.60
2022-09-15T14:58:21.699Z,1.35
2022-09-15T15:01:00.745Z,1.65
2022-09-15T15:03:52.246Z,1.83
2022-09-15T15:07:05.310Z,1.83
2022-09-15T15:09:44.044Z,1.70
2022-09-15T15:12:27.070Z,1.70
2022-09-15T15:14:55.089Z,1.77
2022-09-15T15:17:44.114Z,1.35
2022-09-15T15:20:10.614Z,1.95
2022-09-15T15:22:39.029Z,1.80
2022-09-15T15:25:30.010Z,1.63
2022-09-15T15:28:01.087Z,1.77
2022-09-15T15:30:30.780Z,1.55
2022-09-15T15:32:57.530Z,1.33
2022-09-15T15:35:24.785Z,1.30
2022-09-15T15:38:16.381Z,1.70
2022-09-15T15:40:44.072Z,1.50
2022-09-15T15:43:22.509Z,1.48
2022-09-15T15:45:58.033Z,1.60
2022-09-15T15:48:26.580Z,1.85
2022-09-15T15:50:53.490Z,1.60
2022-09-15T15:53:20.139Z,1.67
2022-09-15T15:55:47.092Z,1.70
2022-09-15T15:58:14.767Z,1.80
2022-09-15T16:00:52.631Z,1.80
2022-09-15T16:03:20.893Z,1.83
2022-09-15T16:05:51.803Z,1.80
2022-09-15T16:08:26.675Z,1.67
2022-09-15T16:10:54.997Z,1.60
2022-09-15T16:13:23.097Z,1.38
2022-09-15T16:15:50.234Z,1.55
2022-09-15T16:18:16.804Z,1.20
2022-09-15T16:20:43.676Z,1.40
2022-09-15T16:23:15.832Z,1.40
2022-09-15T16:25:52.667Z,1.13
2022-09-15T16:28:20.013Z,1.00
2022-09-15T16:30:47.321Z,1.27
2022-09-15T16:33:17.688Z,1.40
2022-09-15T16:36:08.181Z,1.52
2022-09-15T16:38:35.968Z,1.65
2022-09-15T16:41:04.456Z,1.80
2022-09-15T16:43:31.101Z,1.73
2022-09-15T16:45:57.677Z,1.70
2022-09-15T16:48:24.626Z,1.73
2022-09-15T16:51:09.524Z,1.77
2022-09-15T16:53:39.489Z,1.88
2022-09-15T16:56:07.443Z,1.80
2022-09-15T16:58:34.330Z,1.55
2022-09-15T17:01:01.209Z,1.50
2022-09-15T17:03:27.814Z,1.42
2022-09-15T17:05:57.471Z,1.85
2022-09-15T17:08:29.658Z,1.90
2022-09-15T17:10:58.109Z,1.60
2022-09-15T17:13:29.506Z,2.00
2022-09-15T17:15:58.275Z,1.63
2022-09-15T17:18:25.042Z,1.48
2022-09-15T17:20:51.926Z,1.50
2022-09-15T17:23:24.644Z,1.70
2022-09-15T17:25:53.026Z,1.60
2022-09-15T17:28:22.475Z,1.65
2022-09-15T17:30:50.864Z,1.75
2022-09-15T17:33:19.087Z,1.30
2022-09-15T17:35:46.418Z,1.73
2022-09-15T17:38:13.301Z,1.70
2022-09-15T17:40:40.303Z,1.30
2022-09-15T17:43:12.592Z,1.45
2022-09-15T17:45:39.382Z,1.65
2022-09-15T17:48:06.249Z,1.60
2022-09-15T17:50:34.229Z,1.60
2022-09-15T17:53:00.887Z,1.55
2022-09-15T17:55:34.607Z,1.70
2022-09-15T17:58:02.727Z,1.38
2022-09-15T18:00:33.344Z,1.70
2022-09-15T18:03:03.389Z,1.73
2022-09-15T18:05:33.641Z,1.85
2022-09-15T18:08:03.241Z,1.55
2022-09-15T18:10:31.911Z,1.73
2022-09-15T18:12:58.946Z,1.55
2022-09-15T18:15:29.312Z,1.77
2022-09-15T18:18:03.690Z,1.70
2022-09-15T18:22:58.982Z,1.40
2022-09-15T18:25:34.535Z,1.70
2022-09-15T18:28:01.977Z,1.42
2022-09-15T18:30:32.274Z,1.77
2022-09-15T18:32:59.078Z,1.38
2022-09-15T18:35:26.358Z,1.90
2022-09-15T18:37:58.909Z,1.48
2022-09-15T18:40:27.526Z,1.50
2022-09-15T18:42:54.357Z,1.80
2022-09-15T18:45:20.908Z,1.50
2022-09-15T18:47:49.139Z,1.77
2022-09-15T18:50:17.342Z,1.80
2022-09-15T18:52:44.122Z,1.70
2022-09-15T18:55:22.435Z,1.90
2022-09-15T18:57:49.314Z,1.77
2022-09-15T19:00:19.495Z,1.48
2022-09-15T19:02:47.155Z,1.80
2022-09-15T19:05:17.560Z,1.40
2022-09-15T19:07:45.418Z,2.08
2022-09-15T19:10:14.520Z,1.40
2022-09-15T19:12:41.166Z,1.70
2022-09-15T19:15:11.059Z,1.70
2022-09-15T19:17:39.448Z,1.80
2022-09-15T19:20:08.598Z,1.90
2022-09-15T19:22:36.716Z,1.60
2022-09-15T19:25:05.827Z,1.60
2022-09-15T19:27:32.634Z,1.92
2022-09-15T19:30:00.027Z,1.50
2022-09-15T19:32:27.023Z,1.70
2022-09-15T19:34:53.737Z,1.60
2022-09-15T19:37:22.094Z,1.55
2022-09-15T19:39:49.372Z,1.42
2022-09-15T19:42:16.448Z,1.60
2022-09-15T19:44:43.549Z,1.50
2022-09-15T19:47:10.545Z,1.50
2022-09-15T19:49:37.632Z,1.73
2022-09-15T19:52:06.254Z,1.70
2022-09-15T19:54:34.337Z,1.52
2022-09-15T19:57:01.300Z,1.70
2022-09-15T19:59:31.239Z,1.88
2022-09-15T20:01:58.487Z,1.63
2022-09-15T20:04:25.328Z,1.30
2022-09-15T20:06:51.909Z,1.73
2022-09-15T20:09:18.842Z,1.33
2022-09-15T20:11:45.596Z,1.42
2022-09-15T20:14:12.218Z,1.50
2022-09-15T20:16:38.910Z,1.45
2022-09-15T20:19:06.092Z,1.50
2022-09-15T20:21:51.452Z,1.45
2022-09-15T20:24:19.804Z,1.30
2022-09-15T20:26:47.755Z,1.50
2022-09-15T20:29:14.371Z,1.25
2022-09-15T20:31:41.752Z,1.20
2022-09-15T20:34:08.452Z,1.35
2022-09-15T20:36:36.825Z,1.30
2022-09-15T20:39:06.467Z,1.50
2022-09-15T20:41:33.133Z,1.80
2022-09-15T20:44:00.305Z,1.02
2022-09-15T20:46:29.142Z,1.48
2022-09-15T20:48:55.715Z,1.30
2022-09-15T20:51:25.559Z,2.05
2022-09-15T20:53:54.915Z,1.50
2022-09-15T20:56:25.348Z,1.33
2022-09-15T20:58:54.152Z,1.33
2022-09-15T21:01:23.617Z,1.45
2022-09-15T21:03:50.805Z,1.50
2022-09-15T21:06:20.407Z,1.33
2022-09-15T21:08:48.708Z,1.08
2022-09-15T21:11:17.140Z,1.70
2022-09-15T21:13:44.002Z,1.85
2022-09-15T21:16:16.053Z,1.25
2022-09-15T21:18:44.598Z,1.67
2022-09-15T21:21:15.248Z,1.70
2022-09-15T21:23:47.472Z,1.33
2022-09-15T21:26:25.472Z,2.15
2022-09-15T21:28:53.440Z,1.60
2022-09-15T21:31:31.999Z,1.50
2022-09-15T21:33:59.397Z,1.70
2022-09-15T21:36:30.665Z,1.92
2022-09-15T21:38:59.116Z,1.38
2022-09-15T21:41:29.892Z,1.50
2022-09-15T21:43:58.305Z,1.40
2022-09-15T21:46:27.567Z,1.70
2022-09-15T21:48:55.974Z,1.88
2022-09-15T21:51:24.918Z,1.80
2022-09-15T21:53:53.793Z,1.38
2022-09-15T21:56:21.392Z,2.00
2022-09-15T21:58:48.586Z,1.55
2022-09-15T22:01:23.538Z,1.67
2022-09-15T22:04:02.180Z,1.80
2022-09-15T22:06:33.257Z,1.70
2022-09-15T22:09:01.161Z,1.65
2022-09-15T22:11:28.161Z,1.48
2022-09-15T22:13:55.656Z,1.58
2022-09-15T22:16:24.398Z,1.60
2022-09-15T22:18:52.088Z,1.48
2022-09-15T22:21:25.307Z,1.60
2022-09-15T22:23:54.995Z,1.63
2022-09-15T22:26:25.424Z,1.88
2022-09-15T22:28:52.547Z,1.75
2022-09-15T22:31:20.941Z,1.73
2022-09-15T22:33:48.186Z,1.60
2022-09-15T22:36:17.444Z,1.60
2022-09-15T22:38:44.495Z,1.85
2022-09-15T22:41:13.827Z,1.60
2022-09-15T22:43:42.407Z,1.90
2022-09-15T22:46:09.246Z,1.88
2022-09-15T22:48:39.762Z,2.10
2022-09-15T22:51:10.120Z,1.80
2022-09-15T22:53:36.601Z,2.28
2022-09-15T22:56:06.682Z,1.75
2022-09-15T22:58:34.485Z,2.00
2022-09-15T23:01:05.237Z,1.90
2022-09-15T23:03:32.172Z,1.80
2022-09-15T23:05:59.963Z,1.63
2022-09-15T23:08:26.900Z,1.70
2022-09-15T23:10:53.435Z,1.70
2022-09-15T23:13:19.975Z,2.35
2022-09-15T23:15:46.541Z,1.70
2022-09-15T23:18:13.028Z,2.28
2022-09-15T23:20:40.348Z,1.75
2022-09-15T23:23:06.871Z,1.85
2022-09-15T23:25:34.079Z,2.00
2022-09-15T23:28:00.889Z,1.92
2022-09-15T23:30:27.548Z,1.92
2022-09-15T23:32:54.107Z,1.90
2022-09-15T23:35:20.611Z,1.80
2022-09-15T23:37:47.097Z,1.88
2022-09-15T23:40:13.774Z,1.70
2022-09-15T23:42:40.370Z,1.95
2022-09-15T23:45:07.218Z,2.30
2022-09-15T23:47:34.978Z,2.00
2022-09-15T23:50:01.598Z,2.50
2022-09-15T23:52:28.144Z,1.98
2022-09-15T23:54:54.642Z,2.22
2022-09-15T23:57:21.188Z,1.77
2022-09-15T23:59:47.720Z,2.20
